sensor_id;sensor_type;location;lat;lon;timestamp;pressure;altitude;pressure_sealevel;temperature;humidity
9764;BME280;4921;43.214;27.936;2022-12-07T00:01:26;101240.75;;;12.22;100.00
9764;BME280;4921;43.214;27.936;2022-12-07T00:03:56;101231.97;;;12.11;100.00
9764;BME280;4921;43.214;27.936;2022-12-07T00:06:29;101233.28;;;12.05;100.00
9764;BME280;4921;43.214;27.936;2022-12-07T00:08:56;101242.66;;;12.09;100.00
9764;BME280;4921;43.214;27.936;2022-12-07T00:11:23;101234.72;;;12.09;100.00
9764;BME280;4921;43.214;27.936;2022-12-07T00:13:52;101237.59;;;12.06;100.00
9764;BME280;4921;43.214;27.936;2022-12-07T00:16:20;101236.88;;;12.04;100.00
9764;BME280;4921;43.214;27.936;2022-12-07T00:18:47;101242.34;;;12.01;100.00
9764;BME280;4921;43.214;27.936;2022-12-07T00:21:18;101247.97;;;11.97;100.00
9764;BME280;4921;43.214;27.936;2022-12-07T00:23:46;101245.09;;;11.89;100.00
9764;BME280;4921;43.214;27.936;2022-12-07T00:26:16;101248.78;;;11.75;100.00
9764;BME280;4921;43.214;27.936;2022-12-07T00:28:45;101247.13;;;11.62;100.00
9764;BME280;4921;43.214;27.936;2022-12-07T00:31:13;101260.16;;;11.63;100.00
9764;BME280;4921;43.214;27.936;2022-12-07T00:33:41;101243.84;;;11.71;100.00
9764;BME280;4921;43.214;27.936;2022-12-07T00:36:10;101254.38;;;11.71;100.00
9764;BME280;4921;43.214;27.936;2022-12-07T00:38:39;101251.03;;;11.69;100.00
9764;BME280;4921;43.214;27.936;2022-12-07T00:41:09;101247.41;;;11.70;100.00
9764;BME280;4921;43.214;27.936;2022-12-07T00:43:36;101239.38;;;11.71;100.00
9764;BME280;4921;43.214;27.936;2022-12-07T00:46:04;101235.22;;;11.80;100.00
9764;BME280;4921;43.214;27.936;2022-12-07T00:48:31;101241.50;;;11.90;100.00
9764;BME280;4921;43.214;27.936;2022-12-07T00:50:58;101241.72;;;11.87;100.00
9764;BME280;4921;43.214;27.936;2022-12-07T00:53:26;101236.22;;;11.90;100.00
9764;BME280;4921;43.214;27.936;2022-12-07T00:55:54;101235.38;;;11.89;100.00
9764;BME280;4921;43.214;27.936;2022-12-07T00:58:22;101227.94;;;11.83;100.00
9764;BME280;4921;43.214;27.936;2022-12-07T01:00:50;101231.91;;;11.89;100.00
9764;BME280;4921;43.214;27.936;2022-12-07T01:03:17;101237.91;;;11.91;100.00
9764;BME280;4921;43.214;27.936;2022-12-07T01:05:51;101233.97;;;11.96;100.00
9764;BME280;4921;43.214;27.936;2022-12-07T01:08:18;101238.28;;;11.97;100.00
9764;BME280;4921;43.214;27.936;2022-12-07T01:10:46;101228.59;;;11.98;100.00
9764;BME280;4921;43.214;27.936;2022-12-07T01:13:14;101219.22;;;11.94;100.00
9764;BME280;4921;43.214;27.936;2022-12-07T01:15:43;101223.31;;;11.98;100.00
9764;BME280;4921;43.214;27.936;2022-12-07T01:18:10;101219.81;;;11.97;100.00
9764;BME280;4921;43.214;27.936;2022-12-07T01:20:37;101214.22;;;12.02;100.00
9764;BME280;4921;43.214;27.936;2022-12-07T01:23:05;101208.09;;;12.01;100.00
9764;BME280;4921;43.214;27.936;2022-12-07T01:25:31;101208.09;;;12.01;100.00
9764;BME280;4921;43.214;27.936;2022-12-07T01:27:58;101202.81;;;12.01;100.00
9764;BME280;4921;43.214;27.936;2022-12-07T01:30:27;101199.09;;;11.93;100.00
9764;BME280;4921;43.214;27.936;2022-12-07T01:32:55;101201.28;;;11.99;100.00
9764;BME280;4921;43.214;27.936;2022-12-07T01:35:22;101198.53;;;12.00;100.00
9764;BME280;4921;43.214;27.936;2022-12-07T01:37:48;101193.72;;;11.94;100.00
9764;BME280;4921;43.214;27.936;2022-12-07T01:40:15;101188.53;;;11.93;100.00
9764;BME280;4921;43.214;27.936;2022-12-07T01:42:42;101188.88;;;11.88;100.00
9764;BME280;4921;43.214;27.936;2022-12-07T01:45:43;101184.59;;;11.87;100.00
9764;BME280;4921;43.214;27.936;2022-12-07T01:48:13;101178.94;;;11.81;100.00
9764;BME280;4921;43.214;27.936;2022-12-07T01:50:42;101174.03;;;11.76;100.00
9764;BME280;4921;43.214;27.936;2022-12-07T01:53:10;101179.16;;;11.78;100.00
9764;BME280;4921;43.214;27.936;2022-12-07T01:55:42;101180.59;;;11.71;100.00
9764;BME280;4921;43.214;27.936;2022-12-07T01:58:11;101181.00;;;11.65;100.00
9764;BME280;4921;43.214;27.936;2022-12-07T02:00:39;101172.16;;;11.66;100.00
9764;BME280;4921;43.214;27.936;2022-12-07T02:03:10;101170.28;;;11.68;100.00
9764;BME280;4921;43.214;27.936;2022-12-07T02:05:40;101165.88;;;11.68;100.00
9764;BME280;4921;43.214;27.936;2022-12-07T02:08:09;101175.34;;;11.71;100.00
9764;BME280;4921;43.214;27.936;2022-12-07T02:10:37;101172.16;;;11.66;100.00
9764;BME280;4921;43.214;27.936;2022-12-07T02:13:08;101168.69;;;11.65;100.00
9764;BME280;4921;43.214;27.936;2022-12-07T02:16:04;101176.59;;;11.65;100.00
9764;BME280;4921;43.214;27.936;2022-12-07T02:18:49;101158.00;;;11.56;100.00
9764;BME280;4921;43.214;27.936;2022-12-07T02:21:29;101171.00;;;11.70;100.00
9764;BME280;4921;43.214;27.936;2022-12-07T02:24:13;101173.66;;;11.70;100.00
9764;BME280;4921;43.214;27.936;2022-12-07T02:29:58;101168.38;;;11.70;100.00
9764;BME280;4921;43.214;27.936;2022-12-07T02:32:29;101172.91;;;11.68;100.00
9764;BME280;4921;43.214;27.936;2022-12-07T02:35:05;101180.91;;;11.66;100.00
9764;BME280;4921;43.214;27.936;2022-12-07T02:37:36;101174.94;;;11.64;100.00
9764;BME280;4921;43.214;27.936;2022-12-07T02:40:09;101175.00;;;11.63;100.00
9764;BME280;4921;43.214;27.936;2022-12-07T02:42:42;101172.50;;;11.61;100.00
9764;BME280;4921;43.214;27.936;2022-12-07T02:45:14;101177.66;;;11.63;100.00
9764;BME280;4921;43.214;27.936;2022-12-07T02:47:43;101171.19;;;11.56;100.00
9764;BME280;4921;43.214;27.936;2022-12-07T02:50:11;101175.09;;;11.50;100.00
9764;BME280;4921;43.214;27.936;2022-12-07T02:52:38;101172.66;;;11.36;100.00
9764;BME280;4921;43.214;27.936;2022-12-07T02:55:06;101159.19;;;11.28;100.00
9764;BME280;4921;43.214;27.936;2022-12-07T02:57:45;101179.38;;;11.40;100.00
9764;BME280;4921;43.214;27.936;2022-12-07T03:00:19;101175.16;;;11.37;100.00
9764;BME280;4921;43.214;27.936;2022-12-07T03:02:56;101174.56;;;11.34;100.00
9764;BME280;4921;43.214;27.936;2022-12-07T03:05:36;101174.91;;;11.06;100.00
9764;BME280;4921;43.214;27.936;2022-12-07T03:08:12;101157.53;;;11.03;100.00
9764;BME280;4921;43.214;27.936;2022-12-07T03:10:44;101167.09;;;11.04;100.00
9764;BME280;4921;43.214;27.936;2022-12-07T03:13:19;101168.28;;;11.00;100.00
9764;BME280;4921;43.214;27.936;2022-12-07T03:15:55;101166.88;;;10.84;100.00
9764;BME280;4921;43.214;27.936;2022-12-07T03:18:25;101166.34;;;10.79;100.00
9764;BME280;4921;43.214;27.936;2022-12-07T03:20:58;101166.34;;;10.79;100.00
9764;BME280;4921;43.214;27.936;2022-12-07T03:23:28;101166.34;;;10.79;100.00
9764;BME280;4921;43.214;27.936;2022-12-07T03:25:59;101165.13;;;10.71;100.00
9764;BME280;4921;43.214;27.936;2022-12-07T03:28:31;101157.97;;;10.61;100.00
9764;BME280;4921;43.214;27.936;2022-12-07T03:31:05;101161.84;;;10.68;100.00
9764;BME280;4921;43.214;27.936;2022-12-07T03:33:39;101158.50;;;10.66;100.00
9764;BME280;4921;43.214;27.936;2022-12-07T03:36:11;101164.09;;;10.61;100.00
9764;BME280;4921;43.214;27.936;2022-12-07T03:38:45;101161.69;;;10.58;100.00
9764;BME280;4921;43.214;27.936;2022-12-07T03:41:16;101159.59;;;10.51;100.00
9764;BME280;4921;43.214;27.936;2022-12-07T03:43:45;101157.06;;;10.49;100.00
9764;BME280;4921;43.214;27.936;2022-12-07T03:46:17;101155.63;;;10.45;100.00
9764;BME280;4921;43.214;27.936;2022-12-07T03:48:52;101154.97;;;10.42;100.00
9764;BME280;4921;43.214;27.936;2022-12-07T03:51:24;101154.97;;;10.42;100.00
9764;BME280;4921;43.214;27.936;2022-12-07T03:53:55;101154.91;;;10.31;100.00
9764;BME280;4921;43.214;27.936;2022-12-07T03:56:26;101161.41;;;10.25;100.00
9764;BME280;4921;43.214;27.936;2022-12-07T03:58:54;101158.91;;;10.24;100.00
9764;BME280;4921;43.214;27.936;2022-12-07T04:01:24;101162.88;;;10.29;100.00
9764;BME280;4921;43.214;27.936;2022-12-07T04:03:51;101167.28;;;10.41;100.00
9764;BME280;4921;43.214;27.936;2022-12-07T04:06:18;101159.38;;;10.54;100.00
9764;BME280;4921;43.214;27.936;2022-12-07T04:08:45;101159.06;;;10.58;100.00
9764;BME280;4921;43.214;27.936;2022-12-07T04:11:12;101157.19;;;10.48;100.00
9764;BME280;4921;43.214;27.936;2022-12-07T04:13:39;101160.56;;;10.50;100.00
9764;BME280;4921;43.214;27.936;2022-12-07T04:16:19;101148.00;;;10.53;100.00
9764;BME280;4921;43.214;27.936;2022-12-07T04:18:48;101154.78;;;10.45;100.00
9764;BME280;4921;43.214;27.936;2022-12-07T04:21:15;101152.22;;;10.56;100.00
9764;BME280;4921;43.214;27.936;2022-12-07T04:23:41;101145.06;;;10.58;100.00
9764;BME280;4921;43.214;27.936;2022-12-07T04:26:08;101149.19;;;10.49;100.00
9764;BME280;4921;43.214;27.936;2022-12-07T04:28:35;101140.84;;;10.55;100.00
9764;BME280;4921;43.214;27.936;2022-12-07T04:31:02;101140.00;;;10.55;100.00
9764;BME280;4921;43.214;27.936;2022-12-07T04:33:29;101138.25;;;10.43;100.00
9764;BME280;4921;43.214;27.936;2022-12-07T04:35:57;101135.63;;;10.43;100.00
9764;BME280;4921;43.214;27.936;2022-12-07T04:38:24;101142.91;;;10.27;100.00
9764;BME280;4921;43.214;27.936;2022-12-07T04:40:51;101133.88;;;10.18;100.00
9764;BME280;4921;43.214;27.936;2022-12-07T04:43:18;101141.41;;;10.35;100.00
9764;BME280;4921;43.214;27.936;2022-12-07T04:45:46;101140.91;;;10.30;100.00
9764;BME280;4921;43.214;27.936;2022-12-07T04:48:13;101149.63;;;10.18;100.00
9764;BME280;4921;43.214;27.936;2022-12-07T04:50:40;101150.81;;;10.14;100.00
9764;BME280;4921;43.214;27.936;2022-12-07T04:53:09;101148.47;;;10.10;100.00
9764;BME280;4921;43.214;27.936;2022-12-07T04:55:36;101150.91;;;10.00;100.00
9764;BME280;4921;43.214;27.936;2022-12-07T04:58:03;101145.72;;;9.98;100.00
9764;BME280;4921;43.214;27.936;2022-12-07T05:00:30;101147.72;;;9.95;100.00
9764;BME280;4921;43.214;27.936;2022-12-07T05:02:56;101153.09;;;10.06;100.00
9764;BME280;4921;43.214;27.936;2022-12-07T05:05:23;101153.94;;;10.07;100.00
9764;BME280;4921;43.214;27.936;2022-12-07T05:07:50;101141.53;;;9.96;100.00
9764;BME280;4921;43.214;27.936;2022-12-07T05:10:19;101150.03;;;9.99;100.00
9764;BME280;4921;43.214;27.936;2022-12-07T05:12:46;101145.41;;;9.90;100.00
9764;BME280;4921;43.214;27.936;2022-12-07T05:15:13;101152.88;;;9.84;100.00
9764;BME280;4921;43.214;27.936;2022-12-07T05:17:40;101152.31;;;9.66;100.00
9764;BME280;4921;43.214;27.936;2022-12-07T05:20:08;101152.00;;;9.71;100.00
9764;BME280;4921;43.214;27.936;2022-12-07T05:22:35;101158.31;;;9.68;100.00
9764;BME280;4921;43.214;27.936;2022-12-07T05:25:02;101157.78;;;9.63;100.00
9764;BME280;4921;43.214;27.936;2022-12-07T05:27:31;101160.50;;;9.62;100.00
9764;BME280;4921;43.214;27.936;2022-12-07T05:29:58;101157.06;;;9.61;100.00
9764;BME280;4921;43.214;27.936;2022-12-07T05:32:24;101160.72;;;9.59;100.00
9764;BME280;4921;43.214;27.936;2022-12-07T05:34:51;101161.28;;;9.64;100.00
9764;BME280;4921;43.214;27.936;2022-12-07T05:37:20;101156.03;;;9.64;100.00
9764;BME280;4921;43.214;27.936;2022-12-07T05:39:47;101163.69;;;9.67;100.00
9764;BME280;4921;43.214;27.936;2022-12-07T05:42:13;101161.91;;;9.67;100.00
9764;BME280;4921;43.214;27.936;2022-12-07T05:44:44;101164.72;;;9.64;100.00
9764;BME280;4921;43.214;27.936;2022-12-07T05:47:12;101165.00;;;9.60;100.00
9764;BME280;4921;43.214;27.936;2022-12-07T05:49:38;101161.22;;;9.51;100.00
9764;BME280;4921;43.214;27.936;2022-12-07T05:52:06;101156.63;;;9.55;100.00
9764;BME280;4921;43.214;27.936;2022-12-07T05:54:33;101149.50;;;9.57;100.00
9764;BME280;4921;43.214;27.936;2022-12-07T05:56:59;101159.56;;;9.63;100.00
9764;BME280;4921;43.214;27.936;2022-12-07T05:59:26;101154.63;;;9.71;100.00
9764;BME280;4921;43.214;27.936;2022-12-07T06:01:56;101152.97;;;9.70;100.00
9764;BME280;4921;43.214;27.936;2022-12-07T06:04:24;101151.97;;;9.46;100.00
9764;BME280;4921;43.214;27.936;2022-12-07T06:06:51;101157.34;;;9.44;100.00
9764;BME280;4921;43.214;27.936;2022-12-07T06:09:19;101154.00;;;9.55;100.00
9764;BME280;4921;43.214;27.936;2022-12-07T06:11:46;101158.00;;;9.60;100.00
9764;BME280;4921;43.214;27.936;2022-12-07T06:14:30;101154.31;;;9.63;100.00
9764;BME280;4921;43.214;27.936;2022-12-07T06:16:59;101156.66;;;9.67;100.00
9764;BME280;4921;43.214;27.936;2022-12-07T06:19:26;101159.06;;;9.70;100.00
9764;BME280;4921;43.214;27.936;2022-12-07T06:21:54;101158.22;;;9.70;100.00
9764;BME280;4921;43.214;27.936;2022-12-07T06:24:21;101158.94;;;9.59;100.00
9764;BME280;4921;43.214;27.936;2022-12-07T06:26:48;101154.50;;;9.60;100.00
9764;BME280;4921;43.214;27.936;2022-12-07T06:29:16;101162.81;;;9.66;100.00
9764;BME280;4921;43.214;27.936;2022-12-07T06:31:43;101165.88;;;9.73;100.00
9764;BME280;4921;43.214;27.936;2022-12-07T06:34:15;101163.91;;;9.76;100.00
9764;BME280;4921;43.214;27.936;2022-12-07T06:36:43;101166.97;;;9.83;100.00
9764;BME280;4921;43.214;27.936;2022-12-07T06:39:10;101157.69;;;9.90;100.00
9764;BME280;4921;43.214;27.936;2022-12-07T06:41:39;101159.28;;;9.92;100.00
9764;BME280;4921;43.214;27.936;2022-12-07T06:44:06;101160.25;;;9.91;100.00
9764;BME280;4921;43.214;27.936;2022-12-07T06:46:34;101158.97;;;9.97;100.00
9764;BME280;4921;43.214;27.936;2022-12-07T06:49:02;101168.13;;;10.04;100.00
9764;BME280;4921;43.214;27.936;2022-12-07T06:51:30;101161.72;;;10.08;100.00
9764;BME280;4921;43.214;27.936;2022-12-07T06:53:57;101170.03;;;10.15;100.00
9764;BME280;4921;43.214;27.936;2022-12-07T06:56:24;101171.50;;;10.19;100.00
9764;BME280;4921;43.214;27.936;2022-12-07T06:58:51;101168.44;;;10.25;100.00
9764;BME280;4921;43.214;27.936;2022-12-07T07:01:18;101164.88;;;10.26;100.00
9764;BME280;4921;43.214;27.936;2022-12-07T07:03:46;101157.75;;;10.28;100.00
9764;BME280;4921;43.214;27.936;2022-12-07T07:06:13;101161.50;;;10.36;100.00
9764;BME280;4921;43.214;27.936;2022-12-07T07:08:42;101163.25;;;10.48;100.00
9764;BME280;4921;43.214;27.936;2022-12-07T07:11:09;101168.94;;;10.55;100.00
9764;BME280;4921;43.214;27.936;2022-12-07T07:13:36;101162.50;;;10.59;100.00
9764;BME280;4921;43.214;27.936;2022-12-07T07:16:05;101163.88;;;10.64;100.00
9764;BME280;4921;43.214;27.936;2022-12-07T07:18:32;101168.50;;;10.73;100.00
9764;BME280;4921;43.214;27.936;2022-12-07T07:20:59;101167.19;;;10.79;100.00
9764;BME280;4921;43.214;27.936;2022-12-07T07:23:26;101163.06;;;10.88;100.00
9764;BME280;4921;43.214;27.936;2022-12-07T07:25:54;101163.25;;;10.97;100.00
9764;BME280;4921;43.214;27.936;2022-12-07T07:28:21;101167.75;;;11.08;100.00
9764;BME280;4921;43.214;27.936;2022-12-07T07:30:48;101176.63;;;11.18;100.00
9764;BME280;4921;43.214;27.936;2022-12-07T07:33:15;101170.25;;;11.33;100.00
9764;BME280;4921;43.214;27.936;2022-12-07T07:35:42;101166.25;;;11.51;100.00
9764;BME280;4921;43.214;27.936;2022-12-07T07:38:09;101169.16;;;11.59;100.00
9764;BME280;4921;43.214;27.936;2022-12-07T07:40:36;101163.94;;;11.70;100.00
9764;BME280;4921;43.214;27.936;2022-12-07T07:43:04;101172.47;;;11.85;100.00
9764;BME280;4921;43.214;27.936;2022-12-07T07:45:31;101172.16;;;12.00;100.00
9764;BME280;4921;43.214;27.936;2022-12-07T07:47:58;101165.09;;;12.12;100.00
9764;BME280;4921;43.214;27.936;2022-12-07T07:50:25;101167.50;;;12.26;100.00
9764;BME280;4921;43.214;27.936;2022-12-07T07:52:52;101170.63;;;12.42;100.00
9764;BME280;4921;43.214;27.936;2022-12-07T07:55:19;101166.44;;;12.51;100.00
9764;BME280;4921;43.214;27.936;2022-12-07T07:57:46;101176.97;;;12.62;100.00
9764;BME280;4921;43.214;27.936;2022-12-07T08:00:15;101171.56;;;12.74;100.00
9764;BME280;4921;43.214;27.936;2022-12-07T08:02:43;101175.72;;;12.88;100.00
9764;BME280;4921;43.214;27.936;2022-12-07T08:05:12;101172.38;;;12.86;100.00
9764;BME280;4921;43.214;27.936;2022-12-07T08:07:39;101178.34;;;12.99;100.00
9764;BME280;4921;43.214;27.936;2022-12-07T08:10:10;101173.06;;;13.10;100.00
9764;BME280;4921;43.214;27.936;2022-12-07T08:12:38;101173.50;;;13.26;100.00
9764;BME280;4921;43.214;27.936;2022-12-07T08:15:27;101166.75;;;13.33;100.00
9764;BME280;4921;43.214;27.936;2022-12-07T08:17:55;101176.91;;;13.49;100.00
9764;BME280;4921;43.214;27.936;2022-12-07T08:20:22;101172.28;;;13.62;100.00
9764;BME280;4921;43.214;27.936;2022-12-07T08:22:49;101174.06;;;13.61;100.00
9764;BME280;4921;43.214;27.936;2022-12-07T08:25:16;101174.78;;;13.63;100.00
9764;BME280;4921;43.214;27.936;2022-12-07T08:27:43;101173.31;;;13.70;100.00
9764;BME280;4921;43.214;27.936;2022-12-07T08:30:10;101163.38;;;13.84;100.00
9764;BME280;4921;43.214;27.936;2022-12-07T08:32:39;101162.88;;;13.69;100.00
9764;BME280;4921;43.214;27.936;2022-12-07T08:35:07;101163.94;;;13.87;100.00
9764;BME280;4921;43.214;27.936;2022-12-07T08:37:34;101158.53;;;14.09;100.00
9764;BME280;4921;43.214;27.936;2022-12-07T08:40:01;101160.56;;;14.26;100.00
9764;BME280;4921;43.214;27.936;2022-12-07T08:42:28;101164.38;;;14.33;100.00
9764;BME280;4921;43.214;27.936;2022-12-07T08:45:03;101169.31;;;14.47;100.00
9764;BME280;4921;43.214;27.936;2022-12-07T08:47:30;101157.47;;;14.42;100.00
9764;BME280;4921;43.214;27.936;2022-12-07T08:50:02;101155.84;;;14.30;100.00
9764;BME280;4921;43.214;27.936;2022-12-07T08:52:29;101151.44;;;14.10;100.00
9764;BME280;4921;43.214;27.936;2022-12-07T08:54:57;101151.28;;;14.32;100.00
9764;BME280;4921;43.214;27.936;2022-12-07T08:57:25;101144.56;;;14.58;100.00
9764;BME280;4921;43.214;27.936;2022-12-07T08:59:53;101140.69;;;14.72;100.00
9764;BME280;4921;43.214;27.936;2022-12-07T09:02:20;101145.34;;;14.89;100.00
9764;BME280;4921;43.214;27.936;2022-12-07T09:04:47;101142.31;;;15.03;100.00
9764;BME280;4921;43.214;27.936;2022-12-07T09:07:15;101138.81;;;15.12;100.00
9764;BME280;4921;43.214;27.936;2022-12-07T09:09:42;101136.44;;;15.28;100.00
9764;BME280;4921;43.214;27.936;2022-12-07T09:12:09;101128.66;;;15.46;100.00
9764;BME280;4921;43.214;27.936;2022-12-07T09:14:36;101132.09;;;15.08;100.00
9764;BME280;4921;43.214;27.936;2022-12-07T09:17:07;101129.28;;;14.90;100.00
9764;BME280;4921;43.214;27.936;2022-12-07T09:19:34;101138.78;;;14.93;100.00
9764;BME280;4921;43.214;27.936;2022-12-07T09:22:01;101124.56;;;14.94;100.00
9764;BME280;4921;43.214;27.936;2022-12-07T09:24:30;101116.50;;;14.86;100.00
9764;BME280;4921;43.214;27.936;2022-12-07T09:26:57;101109.09;;;15.08;100.00
9764;BME280;4921;43.214;27.936;2022-12-07T09:29:24;101110.63;;;15.01;100.00
9764;BME280;4921;43.214;27.936;2022-12-07T09:31:51;101104.91;;;15.06;100.00
9764;BME280;4921;43.214;27.936;2022-12-07T09:34:18;101107.44;;;15.26;100.00
9764;BME280;4921;43.214;27.936;2022-12-07T09:36:45;101102.56;;;15.41;100.00
9764;BME280;4921;43.214;27.936;2022-12-07T09:39:12;101095.72;;;15.58;100.00
9764;BME280;4921;43.214;27.936;2022-12-07T09:41:42;101092.19;;;15.76;100.00
9764;BME280;4921;43.214;27.936;2022-12-07T09:44:12;101088.25;;;15.90;100.00
9764;BME280;4921;43.214;27.936;2022-12-07T09:46:42;101094.78;;;15.95;100.00
9764;BME280;4921;43.214;27.936;2022-12-07T09:49:12;101084.91;;;15.88;100.00
9764;BME280;4921;43.214;27.936;2022-12-07T09:51:39;101087.56;;;15.88;100.00
9764;BME280;4921;43.214;27.936;2022-12-07T09:54:08;101087.97;;;15.93;100.00
9764;BME280;4921;43.214;27.936;2022-12-07T09:56:38;101078.06;;;15.85;100.00
9764;BME280;4921;43.214;27.936;2022-12-07T09:59:12;101075.19;;;15.60;100.00
9764;BME280;4921;43.214;27.936;2022-12-07T10:01:40;101076.88;;;15.61;100.00
9764;BME280;4921;43.214;27.936;2022-12-07T10:04:11;101079.28;;;15.45;100.00
9764;BME280;4921;43.214;27.936;2022-12-07T10:06:39;101082.34;;;15.11;100.00
9764;BME280;4921;43.214;27.936;2022-12-07T10:09:10;101079.81;;;15.10;100.00
9764;BME280;4921;43.214;27.936;2022-12-07T10:11:59;101074.09;;;14.76;100.00
9764;BME280;4921;43.214;27.936;2022-12-07T10:14:31;101076.31;;;14.62;100.00
9764;BME280;4921;43.214;27.936;2022-12-07T10:16:58;101065.09;;;14.29;100.00
9764;BME280;4921;43.214;27.936;2022-12-07T10:19:27;101066.56;;;14.22;100.00
9764;BME280;4921;43.214;27.936;2022-12-07T10:22:04;101063.25;;;14.00;100.00
9764;BME280;4921;43.214;27.936;2022-12-07T10:24:31;101059.28;;;14.15;100.00
9764;BME280;4921;43.214;27.936;2022-12-07T10:26:58;101056.91;;;14.12;100.00
9764;BME280;4921;43.214;27.936;2022-12-07T10:29:30;101050.66;;;14.13;100.00
9764;BME280;4921;43.214;27.936;2022-12-07T10:31:59;101053.34;;;14.22;100.00
9764;BME280;4921;43.214;27.936;2022-12-07T10:34:28;101054.50;;;14.29;100.00
9764;BME280;4921;43.214;27.936;2022-12-07T10:37:14;101054.88;;;14.25;100.00
9764;BME280;4921;43.214;27.936;2022-12-07T10:39:43;101046.44;;;14.31;100.00
9764;BME280;4921;43.214;27.936;2022-12-07T10:42:22;101048.22;;;14.30;100.00
9764;BME280;4921;43.214;27.936;2022-12-07T10:45:09;101048.81;;;14.34;100.00
9764;BME280;4921;43.214;27.936;2022-12-07T10:47:38;101039.09;;;14.14;100.00
9764;BME280;4921;43.214;27.936;2022-12-07T10:50:43;101039.66;;;14.17;100.00
9764;BME280;4921;43.214;27.936;2022-12-07T10:53:31;101046.09;;;14.24;100.00
9764;BME280;4921;43.214;27.936;2022-12-07T10:56:29;101036.00;;;14.29;100.00
9764;BME280;4921;43.214;27.936;2022-12-07T10:59:16;101034.75;;;14.33;100.00
9764;BME280;4921;43.214;27.936;2022-12-07T11:01:52;101029.84;;;14.29;100.00
9764;BME280;4921;43.214;27.936;2022-12-07T11:04:31;101029.31;;;14.35;100.00
9764;BME280;4921;43.214;27.936;2022-12-07T11:07:05;101032.34;;;14.30;100.00
9764;BME280;4921;43.214;27.936;2022-12-07T11:10:02;101031.09;;;14.34;100.00
9764;BME280;4921;43.214;27.936;2022-12-07T11:12:44;101029.56;;;14.32;100.00
9764;BME280;4921;43.214;27.936;2022-12-07T11:15:18;101015.59;;;14.20;100.00
9764;BME280;4921;43.214;27.936;2022-12-07T11:17:55;101010.25;;;14.01;100.00
9764;BME280;4921;43.214;27.936;2022-12-07T11:20:37;101011.06;;;14.02;100.00
9764;BME280;4921;43.214;27.936;2022-12-07T11:23:16;101012.06;;;14.01;100.00
9764;BME280;4921;43.214;27.936;2022-12-07T11:25:50;101015.97;;;13.66;100.00
9764;BME280;4921;43.214;27.936;2022-12-07T11:28:30;101000.81;;;13.68;100.00
9764;BME280;4921;43.214;27.936;2022-12-07T11:31:10;101001.66;;;13.69;100.00
9764;BME280;4921;43.214;27.936;2022-12-07T11:33:44;101004.22;;;13.59;100.00
9764;BME280;4921;43.214;27.936;2022-12-07T11:36:28;100995.38;;;13.70;100.00
9764;BME280;4921;43.214;27.936;2022-12-07T11:39:00;100990.22;;;13.38;100.00
9764;BME280;4921;43.214;27.936;2022-12-07T11:41:31;100995.84;;;13.54;100.00
9764;BME280;4921;43.214;27.936;2022-12-07T11:44:05;100992.00;;;13.58;100.00
9764;BME280;4921;43.214;27.936;2022-12-07T11:46:43;100989.53;;;13.66;100.00
9764;BME280;4921;43.214;27.936;2022-12-07T11:49:20;100984.00;;;13.79;100.00
9764;BME280;4921;43.214;27.936;2022-12-07T11:51:53;100982.91;;;13.82;100.00
9764;BME280;4921;43.214;27.936;2022-12-07T11:54:26;100982.63;;;13.85;100.00
9764;BME280;4921;43.214;27.936;2022-12-07T11:56:56;100983.06;;;13.90;100.00
9764;BME280;4921;43.214;27.936;2022-12-07T11:59:30;100983.53;;;13.95;100.00
9764;BME280;4921;43.214;27.936;2022-12-07T12:02:13;100977.28;;;14.05;100.00
9764;BME280;4921;43.214;27.936;2022-12-07T12:04:49;100973.78;;;14.05;100.00
9764;BME280;4921;43.214;27.936;2022-12-07T12:07:23;100977.84;;;14.09;100.00
9764;BME280;4921;43.214;27.936;2022-12-07T12:09:53;100973.63;;;13.97;100.00
9764;BME280;4921;43.214;27.936;2022-12-07T12:12:41;100959.31;;;13.99;100.00
9764;BME280;4921;43.214;27.936;2022-12-07T12:15:34;100959.75;;;14.14;100.00
9764;BME280;4921;43.214;27.936;2022-12-07T12:18:26;100969.19;;;14.07;100.00
9764;BME280;4921;43.214;27.936;2022-12-07T12:21:04;100957.25;;;14.12;100.00
9764;BME280;4921;43.214;27.936;2022-12-07T12:23:39;100956.13;;;14.15;100.00
9764;BME280;4921;43.214;27.936;2022-12-07T12:26:15;100964.34;;;14.21;100.00
9764;BME280;4921;43.214;27.936;2022-12-07T12:28:52;100951.56;;;14.26;100.00
9764;BME280;4921;43.214;27.936;2022-12-07T12:31:32;100945.91;;;14.31;100.00
9764;BME280;4921;43.214;27.936;2022-12-07T12:34:03;100948.97;;;14.36;100.00
9764;BME280;4921;43.214;27.936;2022-12-07T12:36:45;100956.34;;;14.42;100.00
9764;BME280;4921;43.214;27.936;2022-12-07T12:39:14;100950.22;;;14.41;100.00
9764;BME280;4921;43.214;27.936;2022-12-07T12:41:54;100954.94;;;14.47;100.00
9764;BME280;4921;43.214;27.936;2022-12-07T12:45:03;100953.00;;;14.49;100.00
9764;BME280;4921;43.214;27.936;2022-12-07T12:47:55;100944.66;;;14.54;100.00
9764;BME280;4921;43.214;27.936;2022-12-07T12:50:25;100954.28;;;14.55;100.00
9764;BME280;4921;43.214;27.936;2022-12-07T12:53:15;100947.56;;;14.61;100.00
9764;BME280;4921;43.214;27.936;2022-12-07T12:56:23;100949.53;;;14.59;100.00
9764;BME280;4921;43.214;27.936;2022-12-07T12:59:25;100952.16;;;14.59;100.00
9764;BME280;4921;43.214;27.936;2022-12-07T13:01:55;100952.72;;;14.62;100.00
9764;BME280;4921;43.214;27.936;2022-12-07T13:04:39;100953.44;;;14.64;100.00
9764;BME280;4921;43.214;27.936;2022-12-07T13:07:30;100947.00;;;14.67;100.00
9764;BME280;4921;43.214;27.936;2022-12-07T13:10:03;100950.50;;;14.67;100.00
9764;BME280;4921;43.214;27.936;2022-12-07T13:12:30;100947.00;;;14.67;100.00
9764;BME280;4921;43.214;27.936;2022-12-07T13:14:58;100947.41;;;14.62;100.00